sensor_id;sensor_type;location;lat;lon;timestamp;P1;durP1;ratioP1;P2;durP2;ratioP2
48665;SDS011;34452;50.796;4.994;2023-03-01T00:01:00;10.60;;;6.35;;
48665;SDS011;34452;50.796;4.994;2023-03-01T00:03:27;11.45;;;6.05;;
48665;SDS011;34452;50.796;4.994;2023-03-01T00:05:53;12.18;;;6.45;;
48665;SDS011;34452;50.796;4.994;2023-03-01T00:08:19;10.65;;;5.88;;
48665;SDS011;34452;50.796;4.994;2023-03-01T00:10:45;9.02;;;6.18;;
48665;SDS011;34452;50.796;4.994;2023-03-01T00:13:10;13.23;;;6.30;;
48665;SDS011;34452;50.796;4.994;2023-03-01T00:15:38;11.65;;;6.47;;
48665;SDS011;34452;50.796;4.994;2023-03-01T00:18:05;13.55;;;6.47;;
48665;SDS011;34452;50.796;4.994;2023-03-01T00:20:31;12.55;;;7.03;;
48665;SDS011;34452;50.796;4.994;2023-03-01T00:22:57;8.82;;;6.00;;
48665;SDS011;34452;50.796;4.994;2023-03-01T00:25:22;10.30;;;6.15;;
48665;SDS011;34452;50.796;4.994;2023-03-01T00:27:48;12.68;;;6.53;;
48665;SDS011;34452;50.796;4.994;2023-03-01T00:30:14;10.50;;;6.28;;
48665;SDS011;34452;50.796;4.994;2023-03-01T00:32:40;11.32;;;6.57;;
48665;SDS011;34452;50.796;4.994;2023-03-01T00:35:06;8.85;;;5.80;;
48665;SDS011;34452;50.796;4.994;2023-03-01T00:37:31;9.27;;;7.05;;
48665;SDS011;34452;50.796;4.994;2023-03-01T00:39:57;12.32;;;7.30;;
48665;SDS011;34452;50.796;4.994;2023-03-01T00:42:23;13.55;;;6.75;;
48665;SDS011;34452;50.796;4.994;2023-03-01T00:44:49;12.02;;;6.68;;
48665;SDS011;34452;50.796;4.994;2023-03-01T00:47:14;10.77;;;6.93;;
48665;SDS011;34452;50.796;4.994;2023-03-01T00:49:40;10.45;;;6.05;;
48665;SDS011;34452;50.796;4.994;2023-03-01T00:52:06;12.50;;;7.05;;
48665;SDS011;34452;50.796;4.994;2023-03-01T00:54:31;12.20;;;6.93;;
48665;SDS011;34452;50.796;4.994;2023-03-01T00:56:57;16.58;;;7.10;;
48665;SDS011;34452;50.796;4.994;2023-03-01T00:59:23;10.63;;;7.30;;
48665;SDS011;34452;50.796;4.994;2023-03-01T01:01:49;10.32;;;7.22;;
48665;SDS011;34452;50.796;4.994;2023-03-01T01:04:14;15.20;;;8.15;;
48665;SDS011;34452;50.796;4.994;2023-03-01T01:06:41;12.18;;;7.25;;
48665;SDS011;34452;50.796;4.994;2023-03-01T01:09:09;16.00;;;7.65;;
48665;SDS011;34452;50.796;4.994;2023-03-01T01:11:49;15.27;;;7.15;;
48665;SDS011;34452;50.796;4.994;2023-03-01T01:14:16;11.15;;;6.53;;
48665;SDS011;34452;50.796;4.994;2023-03-01T01:16:43;11.00;;;6.53;;
48665;SDS011;34452;50.796;4.994;2023-03-01T01:19:10;14.18;;;7.20;;
48665;SDS011;34452;50.796;4.994;2023-03-01T01:21:36;10.45;;;6.82;;
48665;SDS011;34452;50.796;4.994;2023-03-01T01:24:02;11.30;;;6.88;;
48665;SDS011;34452;50.796;4.994;2023-03-01T01:26:30;13.77;;;7.38;;
48665;SDS011;34452;50.796;4.994;2023-03-01T01:28:58;17.70;;;7.50;;
48665;SDS011;34452;50.796;4.994;2023-03-01T01:31:25;11.50;;;6.97;;
48665;SDS011;34452;50.796;4.994;2023-03-01T01:33:52;10.30;;;6.75;;
48665;SDS011;34452;50.796;4.994;2023-03-01T01:36:18;15.23;;;6.80;;
48665;SDS011;34452;50.796;4.994;2023-03-01T01:38:44;9.93;;;6.90;;
48665;SDS011;34452;50.796;4.994;2023-03-01T01:41:10;13.02;;;6.85;;
48665;SDS011;34452;50.796;4.994;2023-03-01T01:43:38;12.10;;;6.68;;
48665;SDS011;34452;50.796;4.994;2023-03-01T01:51:56;11.90;;;7.07;;
48665;SDS011;34452;50.796;4.994;2023-03-01T01:54:30;10.82;;;6.93;;
48665;SDS011;34452;50.796;4.994;2023-03-01T01:57:03;11.05;;;7.10;;
48665;SDS011;34452;50.796;4.994;2023-03-01T01:59:33;9.10;;;6.47;;
48665;SDS011;34452;50.796;4.994;2023-03-01T02:02:00;12.30;;;6.40;;
48665;SDS011;34452;50.796;4.994;2023-03-01T02:04:28;10.77;;;6.60;;
48665;SDS011;34452;50.796;4.994;2023-03-01T02:06:58;10.45;;;5.90;;
48665;SDS011;34452;50.796;4.994;2023-03-01T02:09:31;10.98;;;6.93;;
48665;SDS011;34452;50.796;4.994;2023-03-01T02:11:58;12.65;;;6.55;;
48665;SDS011;34452;50.796;4.994;2023-03-01T02:14:25;8.55;;;5.78;;
48665;SDS011;34452;50.796;4.994;2023-03-01T02:19:31;14.90;;;6.68;;
48665;SDS011;34452;50.796;4.994;2023-03-01T02:27:33;11.15;;;6.43;;
48665;SDS011;34452;50.796;4.994;2023-03-01T02:30:05;12.15;;;7.20;;
48665;SDS011;34452;50.796;4.994;2023-03-01T02:32:32;13.77;;;6.07;;
48665;SDS011;34452;50.796;4.994;2023-03-01T02:37:24;12.73;;;7.13;;
48665;SDS011;34452;50.796;4.994;2023-03-01T02:39:55;10.80;;;6.15;;
48665;SDS011;34452;50.796;4.994;2023-03-01T02:45:13;10.98;;;6.90;;
48665;SDS011;34452;50.796;4.994;2023-03-01T02:47:39;10.27;;;6.32;;
48665;SDS011;34452;50.796;4.994;2023-03-01T02:52:48;15.57;;;6.90;;
48665;SDS011;34452;50.796;4.994;2023-03-01T02:55:21;14.60;;;7.80;;
48665;SDS011;34452;50.796;4.994;2023-03-01T02:57:47;14.73;;;7.43;;
48665;SDS011;34452;50.796;4.994;2023-03-01T03:00:17;13.07;;;7.60;;
48665;SDS011;34452;50.796;4.994;2023-03-01T03:02:46;13.73;;;7.38;;
48665;SDS011;34452;50.796;4.994;2023-03-01T03:05:15;12.23;;;7.18;;
48665;SDS011;34452;50.796;4.994;2023-03-01T03:07:43;10.50;;;6.85;;
48665;SDS011;34452;50.796;4.994;2023-03-01T03:10:12;10.88;;;6.93;;
48665;SDS011;34452;50.796;4.994;2023-03-01T03:12:40;13.13;;;7.53;;
48665;SDS011;34452;50.796;4.994;2023-03-01T03:15:07;16.42;;;7.55;;
48665;SDS011;34452;50.796;4.994;2023-03-01T03:17:35;11.30;;;7.80;;
48665;SDS011;34452;50.796;4.994;2023-03-01T03:20:02;17.58;;;8.13;;
48665;SDS011;34452;50.796;4.994;2023-03-01T03:22:29;12.30;;;7.43;;
48665;SDS011;34452;50.796;4.994;2023-03-01T03:24:56;14.50;;;7.63;;
48665;SDS011;34452;50.796;4.994;2023-03-01T03:27:21;12.32;;;7.28;;
48665;SDS011;34452;50.796;4.994;2023-03-01T03:29:47;15.60;;;8.40;;
48665;SDS011;34452;50.796;4.994;2023-03-01T03:32:13;12.77;;;7.10;;
48665;SDS011;34452;50.796;4.994;2023-03-01T03:34:38;18.15;;;7.45;;
48665;SDS011;34452;50.796;4.994;2023-03-01T03:37:04;11.25;;;7.32;;
48665;SDS011;34452;50.796;4.994;2023-03-01T03:39:50;12.38;;;7.13;;
48665;SDS011;34452;50.796;4.994;2023-03-01T03:42:19;13.30;;;7.00;;
48665;SDS011;34452;50.796;4.994;2023-03-01T03:44:47;10.95;;;6.75;;
48665;SDS011;34452;50.796;4.994;2023-03-01T03:47:13;13.98;;;7.50;;
48665;SDS011;34452;50.796;4.994;2023-03-01T03:49:39;13.70;;;7.05;;
48665;SDS011;34452;50.796;4.994;2023-03-01T03:52:05;12.52;;;6.75;;
48665;SDS011;34452;50.796;4.994;2023-03-01T03:54:38;11.65;;;6.93;;
48665;SDS011;34452;50.796;4.994;2023-03-01T03:57:05;11.27;;;7.25;;
48665;SDS011;34452;50.796;4.994;2023-03-01T04:01:57;18.08;;;7.85;;
48665;SDS011;34452;50.796;4.994;2023-03-01T04:04:23;16.10;;;7.82;;
48665;SDS011;34452;50.796;4.994;2023-03-01T04:06:48;12.32;;;7.47;;
48665;SDS011;34452;50.796;4.994;2023-03-01T04:09:14;13.45;;;8.02;;
48665;SDS011;34452;50.796;4.994;2023-03-01T04:11:40;11.55;;;7.38;;
48665;SDS011;34452;50.796;4.994;2023-03-01T04:14:06;11.43;;;7.18;;
48665;SDS011;34452;50.796;4.994;2023-03-01T04:16:31;19.30;;;7.80;;
48665;SDS011;34452;50.796;4.994;2023-03-01T04:18:57;11.77;;;7.85;;
48665;SDS011;34452;50.796;4.994;2023-03-01T04:21:24;12.63;;;7.60;;
48665;SDS011;34452;50.796;4.994;2023-03-01T04:23:50;13.73;;;8.38;;
48665;SDS011;34452;50.796;4.994;2023-03-01T04:26:17;14.93;;;7.80;;
48665;SDS011;34452;50.796;4.994;2023-03-01T04:28:44;18.85;;;8.43;;
48665;SDS011;34452;50.796;4.994;2023-03-01T04:31:12;13.20;;;8.15;;
48665;SDS011;34452;50.796;4.994;2023-03-01T04:33:43;11.15;;;7.22;;
48665;SDS011;34452;50.796;4.994;2023-03-01T04:36:12;16.80;;;7.70;;
48665;SDS011;34452;50.796;4.994;2023-03-01T04:38:39;12.20;;;8.45;;
48665;SDS011;34452;50.796;4.994;2023-03-01T04:41:06;10.65;;;6.95;;
48665;SDS011;34452;50.796;4.994;2023-03-01T04:43:34;14.52;;;8.23;;
48665;SDS011;34452;50.796;4.994;2023-03-01T04:46:02;11.85;;;8.05;;
48665;SDS011;34452;50.796;4.994;2023-03-01T04:48:30;12.85;;;8.05;;
48665;SDS011;34452;50.796;4.994;2023-03-01T04:50:56;12.25;;;7.57;;
48665;SDS011;34452;50.796;4.994;2023-03-01T04:53:24;12.75;;;7.80;;
48665;SDS011;34452;50.796;4.994;2023-03-01T04:55:50;20.50;;;8.45;;
48665;SDS011;34452;50.796;4.994;2023-03-01T04:58:15;14.32;;;8.63;;
48665;SDS011;34452;50.796;4.994;2023-03-01T05:00:41;11.95;;;8.15;;
48665;SDS011;34452;50.796;4.994;2023-03-01T05:03:07;12.45;;;7.95;;
48665;SDS011;34452;50.796;4.994;2023-03-01T05:08:03;14.60;;;7.88;;
48665;SDS011;34452;50.796;4.994;2023-03-01T05:10:31;12.82;;;8.13;;
48665;SDS011;34452;50.796;4.994;2023-03-01T05:12:58;13.27;;;8.38;;
48665;SDS011;34452;50.796;4.994;2023-03-01T05:17:51;12.90;;;8.27;;
48665;SDS011;34452;50.796;4.994;2023-03-01T05:20:19;15.80;;;9.18;;
48665;SDS011;34452;50.796;4.994;2023-03-01T05:22:48;15.90;;;9.25;;
48665;SDS011;34452;50.796;4.994;2023-03-01T05:25:14;13.05;;;8.38;;
48665;SDS011;34452;50.796;4.994;2023-03-01T05:27:39;17.80;;;8.45;;
48665;SDS011;34452;50.796;4.994;2023-03-01T05:30:05;20.00;;;8.85;;
48665;SDS011;34452;50.796;4.994;2023-03-01T05:32:50;17.35;;;8.75;;
48665;SDS011;34452;50.796;4.994;2023-03-01T05:35:20;20.10;;;9.57;;
48665;SDS011;34452;50.796;4.994;2023-03-01T05:40:15;13.75;;;9.07;;
48665;SDS011;34452;50.796;4.994;2023-03-01T05:42:44;16.48;;;10.93;;
48665;SDS011;34452;50.796;4.994;2023-03-01T05:45:12;29.17;;;10.05;;
48665;SDS011;34452;50.796;4.994;2023-03-01T05:47:40;14.95;;;10.13;;
48665;SDS011;34452;50.796;4.994;2023-03-01T05:50:23;15.10;;;9.10;;
48665;SDS011;34452;50.796;4.994;2023-03-01T05:52:51;17.52;;;9.18;;
48665;SDS011;34452;50.796;4.994;2023-03-01T05:55:22;18.77;;;9.45;;
48665;SDS011;34452;50.796;4.994;2023-03-01T05:57:48;21.33;;;10.90;;
48665;SDS011;34452;50.796;4.994;2023-03-01T06:00:15;15.18;;;9.75;;
48665;SDS011;34452;50.796;4.994;2023-03-01T06:02:43;17.15;;;9.88;;
48665;SDS011;34452;50.796;4.994;2023-03-01T06:05:10;16.70;;;10.45;;
48665;SDS011;34452;50.796;4.994;2023-03-01T06:07:37;16.33;;;10.20;;
48665;SDS011;34452;50.796;4.994;2023-03-01T06:10:04;16.98;;;10.20;;
48665;SDS011;34452;50.796;4.994;2023-03-01T06:12:32;15.77;;;9.32;;
48665;SDS011;34452;50.796;4.994;2023-03-01T06:14:59;19.27;;;9.40;;
48665;SDS011;34452;50.796;4.994;2023-03-01T06:17:25;16.60;;;10.45;;
48665;SDS011;34452;50.796;4.994;2023-03-01T06:19:51;15.45;;;9.38;;
48665;SDS011;34452;50.796;4.994;2023-03-01T06:22:17;18.95;;;10.73;;
48665;SDS011;34452;50.796;4.994;2023-03-01T06:24:42;15.13;;;8.88;;
48665;SDS011;34452;50.796;4.994;2023-03-01T06:27:08;12.90;;;8.75;;
48665;SDS011;34452;50.796;4.994;2023-03-01T06:29:34;16.10;;;9.68;;
48665;SDS011;34452;50.796;4.994;2023-03-01T06:31:59;14.13;;;9.07;;
48665;SDS011;34452;50.796;4.994;2023-03-01T06:34:25;19.35;;;9.73;;
48665;SDS011;34452;50.796;4.994;2023-03-01T06:36:51;24.27;;;8.95;;
48665;SDS011;34452;50.796;4.994;2023-03-01T06:39:16;14.48;;;8.48;;
48665;SDS011;34452;50.796;4.994;2023-03-01T06:41:42;20.98;;;9.88;;
48665;SDS011;34452;50.796;4.994;2023-03-01T06:44:08;16.17;;;9.48;;
48665;SDS011;34452;50.796;4.994;2023-03-01T06:46:34;19.40;;;9.43;;
48665;SDS011;34452;50.796;4.994;2023-03-01T06:49:00;26.90;;;8.30;;
48665;SDS011;34452;50.796;4.994;2023-03-01T06:51:25;20.35;;;8.80;;
48665;SDS011;34452;50.796;4.994;2023-03-01T06:53:51;14.88;;;8.55;;
48665;SDS011;34452;50.796;4.994;2023-03-01T06:56:17;16.45;;;9.55;;
48665;SDS011;34452;50.796;4.994;2023-03-01T06:58:42;12.48;;;7.70;;
48665;SDS011;34452;50.796;4.994;2023-03-01T07:01:08;19.67;;;8.98;;
48665;SDS011;34452;50.796;4.994;2023-03-01T07:03:34;16.20;;;8.93;;
48665;SDS011;34452;50.796;4.994;2023-03-01T07:06:00;17.52;;;10.38;;
48665;SDS011;34452;50.796;4.994;2023-03-01T07:08:26;12.13;;;8.38;;
48665;SDS011;34452;50.796;4.994;2023-03-01T07:13:33;18.30;;;9.05;;
48665;SDS011;34452;50.796;4.994;2023-03-01T07:15:58;17.23;;;9.13;;
48665;SDS011;34452;50.796;4.994;2023-03-01T07:18:24;13.45;;;9.45;;
48665;SDS011;34452;50.796;4.994;2023-03-01T07:20:50;14.73;;;9.15;;
48665;SDS011;34452;50.796;4.994;2023-03-01T07:23:15;20.38;;;9.63;;
48665;SDS011;34452;50.796;4.994;2023-03-01T07:25:41;21.50;;;10.00;;
48665;SDS011;34452;50.796;4.994;2023-03-01T07:28:07;18.33;;;10.07;;
48665;SDS011;34452;50.796;4.994;2023-03-01T07:30:33;19.02;;;9.60;;
48665;SDS011;34452;50.796;4.994;2023-03-01T07:32:58;19.83;;;9.98;;
48665;SDS011;34452;50.796;4.994;2023-03-01T07:35:25;18.40;;;9.68;;
48665;SDS011;34452;50.796;4.994;2023-03-01T07:37:51;18.02;;;9.77;;
48665;SDS011;34452;50.796;4.994;2023-03-01T07:40:18;22.90;;;10.45;;
48665;SDS011;34452;50.796;4.994;2023-03-01T07:45:10;19.42;;;8.82;;
48665;SDS011;34452;50.796;4.994;2023-03-01T07:47:36;16.27;;;8.98;;
48665;SDS011;34452;50.796;4.994;2023-03-01T07:50:02;18.55;;;9.35;;
48665;SDS011;34452;50.796;4.994;2023-03-01T07:52:29;22.95;;;9.48;;
48665;SDS011;34452;50.796;4.994;2023-03-01T07:54:55;19.17;;;9.80;;
48665;SDS011;34452;50.796;4.994;2023-03-01T07:57:21;17.63;;;9.23;;
48665;SDS011;34452;50.796;4.994;2023-03-01T07:59:47;14.52;;;8.77;;
48665;SDS011;34452;50.796;4.994;2023-03-01T08:02:13;14.23;;;9.63;;
48665;SDS011;34452;50.796;4.994;2023-03-01T08:04:40;15.40;;;8.35;;
48665;SDS011;34452;50.796;4.994;2023-03-01T08:09:33;16.08;;;8.82;;
48665;SDS011;34452;50.796;4.994;2023-03-01T08:12:00;13.60;;;9.18;;
48665;SDS011;34452;50.796;4.994;2023-03-01T08:14:26;14.80;;;9.70;;
48665;SDS011;34452;50.796;4.994;2023-03-01T08:16:51;18.95;;;10.35;;
48665;SDS011;34452;50.796;4.994;2023-03-01T08:19:17;18.75;;;10.20;;
48665;SDS011;34452;50.796;4.994;2023-03-01T08:21:43;17.08;;;10.20;;
48665;SDS011;34452;50.796;4.994;2023-03-01T08:24:08;16.38;;;9.15;;
48665;SDS011;34452;50.796;4.994;2023-03-01T08:26:35;22.23;;;10.90;;
48665;SDS011;34452;50.796;4.994;2023-03-01T08:29:01;18.63;;;9.23;;
48665;SDS011;34452;50.796;4.994;2023-03-01T08:31:29;16.83;;;9.95;;
48665;SDS011;34452;50.796;4.994;2023-03-01T08:34:00;20.00;;;10.35;;
48665;SDS011;34452;50.796;4.994;2023-03-01T08:36:28;20.90;;;10.35;;
48665;SDS011;34452;50.796;4.994;2023-03-01T08:38:55;17.05;;;10.68;;
48665;SDS011;34452;50.796;4.994;2023-03-01T08:41:21;23.27;;;10.85;;
48665;SDS011;34452;50.796;4.994;2023-03-01T08:43:47;14.50;;;9.73;;
48665;SDS011;34452;50.796;4.994;2023-03-01T08:46:13;17.80;;;9.93;;
48665;SDS011;34452;50.796;4.994;2023-03-01T08:48:39;19.42;;;11.88;;
48665;SDS011;34452;50.796;4.994;2023-03-01T08:51:09;21.50;;;10.52;;
48665;SDS011;34452;50.796;4.994;2023-03-01T08:53:36;19.25;;;11.02;;
48665;SDS011;34452;50.796;4.994;2023-03-01T08:56:02;17.75;;;10.95;;
48665;SDS011;34452;50.796;4.994;2023-03-01T08:58:28;20.67;;;10.55;;
48665;SDS011;34452;50.796;4.994;2023-03-01T09:00:54;23.67;;;10.25;;
48665;SDS011;34452;50.796;4.994;2023-03-01T09:03:21;20.70;;;10.13;;
48665;SDS011;34452;50.796;4.994;2023-03-01T09:05:48;18.45;;;9.57;;
48665;SDS011;34452;50.796;4.994;2023-03-01T09:10:41;16.08;;;10.40;;
48665;SDS011;34452;50.796;4.994;2023-03-01T09:13:07;19.70;;;10.68;;
48665;SDS011;34452;50.796;4.994;2023-03-01T09:15:33;17.98;;;10.50;;
48665;SDS011;34452;50.796;4.994;2023-03-01T09:17:58;23.88;;;10.93;;
48665;SDS011;34452;50.796;4.994;2023-03-01T09:20:24;16.33;;;9.80;;
48665;SDS011;34452;50.796;4.994;2023-03-01T09:22:50;31.38;;;11.05;;
48665;SDS011;34452;50.796;4.994;2023-03-01T09:25:16;18.85;;;9.50;;
48665;SDS011;34452;50.796;4.994;2023-03-01T09:27:41;19.73;;;10.32;;
48665;SDS011;34452;50.796;4.994;2023-03-01T09:30:07;21.77;;;10.05;;
48665;SDS011;34452;50.796;4.994;2023-03-01T09:32:34;15.52;;;9.77;;
48665;SDS011;34452;50.796;4.994;2023-03-01T09:34:59;18.38;;;10.25;;
48665;SDS011;34452;50.796;4.994;2023-03-01T09:37:28;17.80;;;9.40;;
48665;SDS011;34452;50.796;4.994;2023-03-01T09:39:54;18.77;;;10.50;;
48665;SDS011;34452;50.796;4.994;2023-03-01T09:42:20;21.17;;;9.75;;
48665;SDS011;34452;50.796;4.994;2023-03-01T09:44:58;16.17;;;10.23;;
48665;SDS011;34452;50.796;4.994;2023-03-01T09:47:30;20.70;;;10.20;;
48665;SDS011;34452;50.796;4.994;2023-03-01T09:49:58;21.13;;;9.52;;
48665;SDS011;34452;50.796;4.994;2023-03-01T09:52:33;14.25;;;9.90;;
48665;SDS011;34452;50.796;4.994;2023-03-01T09:55:25;17.38;;;9.02;;
48665;SDS011;34452;50.796;4.994;2023-03-01T09:57:58;19.23;;;10.00;;
48665;SDS011;34452;50.796;4.994;2023-03-01T10:08:59;17.80;;;9.68;;
48665;SDS011;34452;50.796;4.994;2023-03-01T10:11:30;14.70;;;9.23;;
48665;SDS011;34452;50.796;4.994;2023-03-01T10:19:42;15.50;;;9.13;;
48665;SDS011;34452;50.796;4.994;2023-03-01T10:24:53;14.57;;;9.55;;
48665;SDS011;34452;50.796;4.994;2023-03-01T10:27:24;20.40;;;10.00;;
48665;SDS011;34452;50.796;4.994;2023-03-01T10:29:56;20.25;;;10.00;;
48665;SDS011;34452;50.796;4.994;2023-03-01T10:32:41;20.98;;;10.15;;
48665;SDS011;34452;50.796;4.994;2023-03-01T10:43:19;13.77;;;9.38;;
48665;SDS011;34452;50.796;4.994;2023-03-01T10:48:12;15.40;;;9.02;;
48665;SDS011;34452;50.796;4.994;2023-03-01T10:50:42;17.27;;;10.13;;
48665;SDS011;34452;50.796;4.994;2023-03-01T11:01:44;17.40;;;9.38;;
48665;SDS011;34452;50.796;4.994;2023-03-01T11:04:11;13.95;;;9.00;;
48665;SDS011;34452;50.796;4.994;2023-03-01T11:06:38;13.52;;;9.63;;
48665;SDS011;34452;50.796;4.994;2023-03-01T11:12:13;18.15;;;11.05;;
48665;SDS011;34452;50.796;4.994;2023-03-01T11:14:46;17.02;;;10.45;;
48665;SDS011;34452;50.796;4.994;2023-03-01T11:17:15;13.52;;;9.30;;
48665;SDS011;34452;50.796;4.994;2023-03-01T11:19:42;18.52;;;9.63;;
48665;SDS011;34452;50.796;4.994;2023-03-01T11:22:24;18.88;;;10.55;;
48665;SDS011;34452;50.796;4.994;2023-03-01T11:24:50;26.70;;;10.50;;
48665;SDS011;34452;50.796;4.994;2023-03-01T11:27:19;19.00;;;9.73;;
48665;SDS011;34452;50.796;4.994;2023-03-01T11:29:54;16.65;;;9.30;;
48665;SDS011;34452;50.796;4.994;2023-03-01T11:32:26;18.05;;;9.80;;
48665;SDS011;34452;50.796;4.994;2023-03-01T11:35:00;18.52;;;10.25;;
48665;SDS011;34452;50.796;4.994;2023-03-01T11:40:25;21.83;;;10.23;;
48665;SDS011;34452;50.796;4.994;2023-03-01T11:45:41;18.15;;;10.05;;
48665;SDS011;34452;50.796;4.994;2023-03-01T11:48:17;15.73;;;9.50;;
48665;SDS011;34452;50.796;4.994;2023-03-01T11:51:09;15.80;;;9.13;;
48665;SDS011;34452;50.796;4.994;2023-03-01T11:56:42;19.23;;;9.95;;
48665;SDS011;34452;50.796;4.994;2023-03-01T12:07:46;14.60;;;9.25;;
48665;SDS011;34452;50.796;4.994;2023-03-01T12:10:33;18.13;;;9.45;;
48665;SDS011;34452;50.796;4.994;2023-03-01T12:18:22;18.45;;;9.43;;
48665;SDS011;34452;50.796;4.994;2023-03-01T12:21:16;14.52;;;9.18;;
48665;SDS011;34452;50.796;4.994;2023-03-01T12:27:12;22.50;;;9.27;;
48665;SDS011;34452;50.796;4.994;2023-03-01T12:32:47;19.23;;;9.63;;
48665;SDS011;34452;50.796;4.994;2023-03-01T12:44:15;15.80;;;9.75;;
48665;SDS011;34452;50.796;4.994;2023-03-01T12:49:49;18.85;;;9.07;;
48665;SDS011;34452;50.796;4.994;2023-03-01T12:52:22;15.27;;;9.20;;
48665;SDS011;34452;50.796;4.994;2023-03-01T12:54:50;16.80;;;8.93;;
48665;SDS011;34452;50.796;4.994;2023-03-01T12:57:21;17.02;;;9.35;;
48665;SDS011;34452;50.796;4.994;2023-03-01T13:02:55;18.10;;;9.93;;
48665;SDS011;34452;50.796;4.994;2023-03-01T13:05:46;22.05;;;11.30;;
48665;SDS011;34452;50.796;4.994;2023-03-01T13:08:17;24.95;;;13.38;;
48665;SDS011;34452;50.796;4.994;2023-03-01T13:13:30;27.23;;;12.27;;
48665;SDS011;34452;50.796;4.994;2023-03-01T13:15:56;24.20;;;12.40;;
48665;SDS011;34452;50.796;4.994;2023-03-01T13:20:50;21.38;;;10.90;;
48665;SDS011;34452;50.796;4.994;2023-03-01T13:31:01;17.55;;;9.90;;
48665;SDS011;34452;50.796;4.994;2023-03-01T13:35:54;15.60;;;8.10;;
48665;SDS011;34452;50.796;4.994;2023-03-01T13:44:38;13.82;;;8.40;;
48665;SDS011;34452;50.796;4.994;2023-03-01T13:46:59;13.82;;;7.65;;
48665;SDS011;34452;50.796;4.994;2023-03-01T13:55:18;19.10;;;8.13;;
48665;SDS011;34452;50.796;4.994;2023-03-01T13:57:49;15.15;;;8.30;;
48665;SDS011;34452;50.796;4.994;2023-03-01T14:03:09;18.27;;;7.82;;
48665;SDS011;34452;50.796;4.994;2023-03-01T14:06:07;12.20;;;8.02;;
48665;SDS011;34452;50.796;4.994;2023-03-01T14:08:35;15.30;;;8.50;;
48665;SDS011;34452;50.796;4.994;2023-03-01T14:19:34;12.73;;;7.22;;
48665;SDS011;34452;50.796;4.994;2023-03-01T14:22:04;12.13;;;8.10;;
48665;SDS011;34452;50.796;4.994;2023-03-01T14:24:46;18.48;;;8.20;;
48665;SDS011;34452;50.796;4.994;2023-03-01T14:27:14;14.65;;;7.72;;
48665;SDS011;34452;50.796;4.994;2023-03-01T14:29:41;17.40;;;7.80;;
48665;SDS011;34452;50.796;4.994;2023-03-01T14:32:09;15.95;;;8.15;;
48665;SDS011;34452;50.796;4.994;2023-03-01T14:34:35;20.67;;;8.43;;
48665;SDS011;34452;50.796;4.994;2023-03-01T14:37:11;12.88;;;7.88;;
48665;SDS011;34452;50.796;4.994;2023-03-01T14:39:43;14.63;;;6.95;;
48665;SDS011;34452;50.796;4.994;2023-03-01T14:42:09;16.63;;;7.63;;
48665;SDS011;34452;50.796;4.994;2023-03-01T14:44:34;16.27;;;6.90;;
48665;SDS011;34452;50.796;4.994;2023-03-01T14:47:02;21.63;;;8.20;;
48665;SDS011;34452;50.796;4.994;2023-03-01T14:49:30;13.75;;;7.95;;
48665;SDS011;34452;50.796;4.994;2023-03-01T14:51:58;16.92;;;8.27;;
48665;SDS011;34452;50.796;4.994;2023-03-01T14:54:28;14.43;;;7.68;;
48665;SDS011;34452;50.796;4.994;2023-03-01T14:57:05;10.85;;;7.65;;
48665;SDS011;34452;50.796;4.994;2023-03-01T14:59:33;12.55;;;7.32;;
48665;SDS011;34452;50.796;4.994;2023-03-01T15:01:59;13.45;;;8.38;;
48665;SDS011;34452;50.796;4.994;2023-03-01T15:06:54;15.60;;;7.40;;
48665;SDS011;34452;50.796;4.994;2023-03-01T15:09:29;14.13;;;7.90;;
48665;SDS011;34452;50.796;4.994;2023-03-01T15:11:58;14.65;;;8.13;;
48665;SDS011;34452;50.796;4.994;2023-03-01T15:14:25;15.38;;;7.93;;
48665;SDS011;34452;50.796;4.994;2023-03-01T15:17:35;14.18;;;8.15;;
48665;SDS011;34452;50.796;4.994;2023-03-01T15:20:02;16.50;;;7.60;;
48665;SDS011;34452;50.796;4.994;2023-03-01T15:22:31;16.08;;;7.63;;
48665;SDS011;34452;50.796;4.994;2023-03-01T15:24:57;12.27;;;7.18;;
48665;SDS011;34452;50.796;4.994;2023-03-01T15:27:23;22.60;;;7.80;;
48665;SDS011;34452;50.796;4.994;2023-03-01T15:34:57;12.18;;;7.32;;
48665;SDS011;34452;50.796;4.994;2023-03-01T15:40:27;16.95;;;6.88;;
48665;SDS011;34452;50.796;4.994;2023-03-01T15:43:14;11.40;;;7.68;;
48665;SDS011;34452;50.796;4.994;2023-03-01T15:46:15;14.35;;;7.72;;
48665;SDS011;34452;50.796;4.994;2023-03-01T15:48:44;13.90;;;7.55;;
48665;SDS011;34452;50.796;4.994;2023-03-01T15:51:14;15.63;;;7.50;;
48665;SDS011;34452;50.796;4.994;2023-03-01T15:53:41;12.48;;;7.00;;
48665;SDS011;34452;50.796;4.994;2023-03-01T15:56:11;16.10;;;7.30;;
48665;SDS011;34452;50.796;4.994;2023-03-01T15:58:37;20.07;;;6.90;;
48665;SDS011;34452;50.796;4.994;2023-03-01T16:01:07;13.53;;;7.00;;
48665;SDS011;34452;50.796;4.994;2023-03-01T16:03:37;13.00;;;6.82;;
48665;SDS011;34452;50.796;4.994;2023-03-01T16:06:03;14.60;;;7.10;;
48665;SDS011;34452;50.796;4.994;2023-03-01T16:08:29;11.98;;;7.18;;
48665;SDS011;34452;50.796;4.994;2023-03-01T16:10:55;20.15;;;7.35;;
48665;SDS011;34452;50.796;4.994;2023-03-01T16:13:21;13.43;;;6.55;;
48665;SDS011;34452;50.796;4.994;2023-03-01T16:15:46;13.70;;;7.57;;
48665;SDS011;34452;50.796;4.994;2023-03-01T16:18:12;14.93;;;7.37;;
48665;SDS011;34452;50.796;4.994;2023-03-01T16:20:38;13.67;;;6.60;;
48665;SDS011;34452;50.796;4.994;2023-03-01T16:23:06;11.60;;;6.45;;
48665;SDS011;34452;50.796;4.994;2023-03-01T16:25:33;13.90;;;6.32;;
48665;SDS011;34452;50.796;4.994;2023-03-01T16:28:00;31.23;;;7.10;;
48665;SDS011;34452;50.796;4.994;2023-03-01T16:30:29;15.07;;;6.28;;
48665;SDS011;34452;50.796;4.994;2023-03-01T16:32:55;9.20;;;5.65;;
48665;SDS011;34452;50.796;4.994;2023-03-01T16:35:21;13.53;;;6.30;;
48665;SDS011;34452;50.796;4.994;2023-03-01T16:37:48;10.40;;;5.20;;
48665;SDS011;34452;50.796;4.994;2023-03-01T16:42:53;12.90;;;5.57;;
48665;SDS011;34452;50.796;4.994;2023-03-01T16:45:24;9.65;;;5.90;;
48665;SDS011;34452;50.796;4.994;2023-03-01T16:47:50;12.45;;;6.05;;
48665;SDS011;34452;50.796;4.994;2023-03-01T16:52:42;13.43;;;5.47;;
48665;SDS011;34452;50.796;4.994;2023-03-01T16:55:08;11.73;;;6.05;;
48665;SDS011;34452;50.796;4.994;2023-03-01T16:57:34;10.38;;;5.50;;
48665;SDS011;34452;50.796;4.994;2023-03-01T17:00:02;8.70;;;5.55;;
48665;SDS011;34452;50.796;4.994;2023-03-01T17:02:32;12.43;;;5.40;;
48665;SDS011;34452;50.796;4.994;2023-03-01T17:04:59;8.70;;;5.13;;
48665;SDS011;34452;50.796;4.994;2023-03-01T17:07:25;13.60;;;6.00;;
48665;SDS011;34452;50.796;4.994;2023-03-01T17:09:51;16.65;;;5.78;;
48665;SDS011;34452;50.796;4.994;2023-03-01T17:12:16;10.63;;;6.10;;
48665;SDS011;34452;50.796;4.994;2023-03-01T17:14:42;13.60;;;5.47;;
48665;SDS011;34452;50.796;4.994;2023-03-01T17:17:08;11.27;;;5.60;;
48665;SDS011;34452;50.796;4.994;2023-03-01T17:19:35;10.60;;;6.28;;
48665;SDS011;34452;50.796;4.994;2023-03-01T17:22:06;16.02;;;6.03;;
48665;SDS011;34452;50.796;4.994;2023-03-01T17:24:33;20.02;;;5.93;;
48665;SDS011;34452;50.796;4.994;2023-03-01T17:26:59;9.50;;;5.22;;
48665;SDS011;34452;50.796;4.994;2023-03-01T17:29:25;12.50;;;6.25;;
48665;SDS011;34452;50.796;4.994;2023-03-01T17:31:51;13.88;;;5.35;;
48665;SDS011;34452;50.796;4.994;2023-03-01T17:34:20;18.98;;;5.85;;
48665;SDS011;34452;50.796;4.994;2023-03-01T17:36:47;9.18;;;5.53;;
48665;SDS011;34452;50.796;4.994;2023-03-01T17:39:14;22.65;;;6.18;;